Time;durP1;ratioP1;P1;durP2;ratioP2;P2;SDS_P1;SDS_P2;PMS_P1;PMS_P2;Temp;Humidity;BMP_temperature;BMP_pressure;BME280_temperature;BME280_humidity;BME280_pressure;Samples;Min_cycle;Max_cycle;Signal;HPM_P1;HPM_P2
2023/08/31 00:00:53;;;;;;;5.82;2.72;;;;;;;15.18;69.07;98959.09;5052417;28;20060;-82
2023/08/31 00:03:20;;;;;;;6.78;2.92;;;;;;;15.17;69.24;98955.59;5052852;28;20080;-83
2023/08/31 00:05:46;;;;;;;8.93;3.33;;;;;;;15.16;69.27;98953.91;5035136;28;20049;-82
2023/08/31 00:08:13;;;;;;;7.10;3.10;;;;;;;15.16;69.21;98953.06;5052763;28;20056;-82
2023/08/31 00:10:40;;;;;;;6.53;2.90;;;;;;;15.14;69.41;98939.94;5034922;28;20068;-82
2023/08/31 00:13:07;;;;;;;6.28;2.80;;;;;;;15.15;69.61;98943.44;5035192;28;20057;-82
2023/08/31 00:15:35;;;;;;;5.68;2.70;;;;;;;15.15;69.68;98940.78;5051884;28;20053;-82
2023/08/31 00:18:06;;;;;;;5.70;2.50;;;;;;;15.16;69.51;98945.09;5052445;28;20053;-83
2023/08/31 00:20:35;;;;;;;6.90;3.45;;;;;;;15.16;69.54;98943.31;5034481;28;20500;-82
2023/08/31 00:23:02;;;;;;;8.93;2.97;;;;;;;15.16;69.38;98950.41;5052777;28;20061;-82
2023/08/31 00:25:29;;;;;;;8.20;3.03;;;;;;;15.15;69.40;98946.94;5053072;28;20052;-82
2023/08/31 00:27:57;;;;;;;5.68;3.13;;;;;;;15.15;69.51;98946.94;5052314;28;20533;-82
2023/08/31 00:30:28;;;;;;;9.35;3.08;;;;;;;15.16;69.38;98953.06;5052340;28;20052;-82
2023/08/31 00:32:55;;;;;;;6.70;2.97;;;;;;;15.16;69.50;98947.75;5052396;28;20098;-83
2023/08/31 00:35:22;;;;;;;12.95;3.20;;;;;;;15.16;69.52;98953.91;5052561;28;20135;-82
2023/08/31 00:37:49;;;;;;;7.45;2.75;;;;;;;15.16;69.67;98950.41;5034584;28;20136;-83
2023/08/31 00:40:16;;;;;;;6.25;2.97;;;;;;;15.18;69.65;98951.13;5034509;28;20080;-83
2023/08/31 00:42:42;;;;;;;4.30;2.97;;;;;;;15.19;69.83;98948.34;5036029;28;20071;-82
2023/08/31 00:45:10;;;;;;;7.47;3.10;;;;;;;15.19;69.61;98948.34;5052583;28;20049;-82
2023/08/31 00:47:36;;;;;;;7.43;3.20;;;;;;;15.21;69.55;98945.53;5052757;28;20056;-82
2023/08/31 00:50:03;;;;;;;9.15;3.88;;;;;;;15.21;69.47;98953.47;5052967;28;20049;-83
2023/08/31 00:52:30;;;;;;;7.30;3.75;;;;;;;15.22;69.37;98949.88;5052353;28;20060;-82
2023/08/31 00:54:56;;;;;;;7.32;3.28;;;;;;;15.21;69.43;98959.63;5052850;28;20071;-82
2023/08/31 00:57:26;;;;;;;8.32;3.65;;;;;;;15.21;69.74;98954.34;5052095;28;20438;-82
2023/08/31 00:59:52;;;;;;;6.93;3.40;;;;;;;15.21;69.39;98959.63;5052212;28;20056;-82
2023/08/31 01:02:29;;;;;;;9.48;3.78;;;;;;;15.20;69.28;98962.41;5035320;28;20669;-83
2023/08/31 01:05:26;;;;;;;5.72;3.42;;;;;;;15.18;69.57;98951.13;5042173;28;20114;-82
2023/08/31 01:08:07;;;;;;;10.43;4.00;;;;;;;15.20;69.29;98951.81;5052943;28;20059;-82
2023/08/31 01:10:51;;;;;;;7.35;3.67;;;;;;;15.20;69.26;98950.00;5052669;28;20483;-83
2023/08/31 01:13:23;;;;;;;5.53;3.78;;;;;;;15.16;69.55;98948.59;5052541;28;20053;-82
2023/08/31 01:15:59;;;;;;;7.83;4.00;;;;;;;15.15;69.54;98946.09;5052843;28;20114;-82
2023/08/31 01:18:28;;;;;;;5.88;3.90;;;;;;;15.16;69.39;98942.47;5053048;28;20287;-82
2023/08/31 01:21:00;;;;;;;5.25;3.80;;;;;;;15.13;69.54;98940.91;5052656;28;20048;-82
2023/08/31 01:23:35;;;;;;;10.13;4.60;;;;;;;15.11;69.30;98940.25;5052787;28;20055;-82
2023/08/31 01:26:02;;;;;;;8.13;4.20;;;;;;;15.09;69.27;98942.16;5037491;28;20053;-82
2023/08/31 01:28:28;;;;;;;5.75;3.60;;;;;;;15.07;69.70;98950.25;5060409;28;20049;-82
2023/08/31 01:30:55;;;;;;;8.93;4.60;;;;;;;15.05;69.19;98943.41;5060149;28;20127;-82
2023/08/31 01:33:21;;;;;;;8.35;4.25;;;;;;;15.01;69.04;98942.88;5059232;28;20055;-82
2023/08/31 01:35:53;;;;;;;9.25;4.47;;;;;;;14.97;69.22;98954.72;5060140;28;20063;-82
2023/08/31 01:38:27;;;;;;;9.57;4.50;;;;;;;14.93;69.52;98942.69;5059964;28;20415;-82
2023/08/31 01:41:05;;;;;;;6.32;4.40;;;;;;;14.91;69.25;98948.13;5058652;28;20558;-82
2023/08/31 01:43:33;;;;;;;7.20;4.40;;;;;;;14.88;69.26;98948.41;5057313;28;20056;-82
2023/08/31 01:46:00;;;;;;;11.18;5.07;;;;;;;14.84;69.34;98949.66;5057199;28;20049;-82
2023/08/31 01:48:26;;;;;;;7.60;4.40;;;;;;;14.81;69.13;98949.94;5039247;28;20141;-82
2023/08/31 01:50:53;;;;;;;10.77;4.55;;;;;;;14.78;69.38;98952.84;5057025;28;20049;-82
2023/08/31 01:53:20;;;;;;;8.45;4.45;;;;;;;14.76;69.40;98952.13;5057066;28;20052;-82
2023/08/31 01:55:46;;;;;;;7.38;4.28;;;;;;;14.72;69.63;98951.53;5048558;28;20045;-82
2023/08/31 01:58:12;;;;;;;9.05;4.43;;;;;;;14.71;69.35;98953.34;5057117;28;20122;-82
2023/08/31 02:00:39;;;;;;;10.50;4.45;;;;;;;14.69;69.42;98949.16;5056766;28;20052;-82
2023/08/31 02:03:06;;;;;;;5.95;3.88;;;;;;;14.68;69.50;98953.63;5057141;28;20052;-82
2023/08/31 02:05:32;;;;;;;7.28;4.10;;;;;;;14.66;69.77;98954.72;5057469;28;20420;-82
2023/08/31 02:07:59;;;;;;;9.20;4.28;;;;;;;14.64;69.89;98954.84;5057586;28;20063;-82
2023/08/31 02:10:27;;;;;;;8.68;4.43;;;;;;;14.62;69.48;98948.88;5056620;28;20048;-82
2023/08/31 02:12:53;;;;;;;8.52;4.25;;;;;;;14.62;69.67;98961.25;5041502;28;20486;-82
2023/08/31 02:15:19;;;;;;;9.68;4.80;;;;;;;14.60;69.72;98953.44;5057151;28;20060;-82
2023/08/31 02:17:46;;;;;;;9.77;4.82;;;;;;;14.59;69.56;98949.13;5038995;28;20084;-82
2023/08/31 02:20:14;;;;;;;9.80;4.70;;;;;;;14.58;69.72;98956.22;5051204;28;20045;-82
2023/08/31 02:22:40;;;;;;;9.98;4.65;;;;;;;14.56;69.41;98952.88;5055316;28;20053;-82
2023/08/31 02:25:07;;;;;;;8.00;4.95;;;;;;;14.55;69.56;98953.00;5056756;28;20063;-82
2023/08/31 02:27:34;;;;;;;10.38;5.22;;;;;;;14.54;69.59;98952.16;5056684;28;20053;-82
2023/08/31 02:30:00;;;;;;;5.72;4.47;;;;;;;14.52;69.61;98946.19;5052065;28;20052;-82
2023/08/31 02:32:27;;;;;;;7.10;5.10;;;;;;;14.50;69.69;98948.09;5053305;28;20049;-82
2023/08/31 02:34:53;;;;;;;9.82;5.72;;;;;;;14.48;69.50;98944.75;5040657;28;20124;-82
2023/08/31 02:37:20;;;;;;;6.22;4.63;;;;;;;14.46;69.47;98951.97;5054777;28;20423;-82
2023/08/31 02:39:46;;;;;;;7.13;4.90;;;;;;;14.43;69.68;98947.78;5053439;28;20136;-82
2023/08/31 02:42:14;;;;;;;6.57;4.82;;;;;;;14.39;69.62;98946.38;5053752;28;20048;-82
2023/08/31 02:44:40;;;;;;;10.10;5.10;;;;;;;14.39;69.78;98945.56;5051895;28;20044;-82
2023/08/31 02:47:07;;;;;;;7.25;4.75;;;;;;;14.37;69.81;98940.41;5046918;28;20048;-82
2023/08/31 02:49:33;;;;;;;8.70;4.45;;;;;;;14.36;69.65;98951.97;5027313;28;20052;-82
2023/08/31 02:52:00;;;;;;;7.63;5.13;;;;;;;14.35;69.81;98942.31;5035458;28;20053;-82
2023/08/31 02:54:26;;;;;;;7.05;4.55;;;;;;;14.35;69.77;98950.25;5035614;28;20056;-82
2023/08/31 02:56:53;;;;;;;9.20;5.07;;;;;;;14.32;69.92;98947.91;5053407;28;20048;-82
2023/08/31 02:59:19;;;;;;;5.20;4.53;;;;;;;14.32;69.65;98950.56;5053198;28;20049;-82
2023/08/31 03:01:46;;;;;;;10.35;4.80;;;;;;;14.29;69.46;98954.31;5034965;28;20140;-82
2023/08/31 03:04:13;;;;;;;9.23;4.95;;;;;;;14.27;69.63;98947.44;5053125;28;20131;-82
2023/08/31 03:06:39;;;;;;;9.00;4.85;;;;;;;14.26;69.69;98948.41;5035198;28;20045;-82
2023/08/31 03:09:05;;;;;;;9.35;5.05;;;;;;;14.24;69.73;98953.00;5053441;28;20055;-82
2023/08/31 03:11:32;;;;;;;6.88;5.00;;;;;;;14.22;69.80;98947.00;5052966;28;20411;-82
2023/08/31 03:13:58;;;;;;;7.88;5.35;;;;;;;14.19;69.67;98948.09;5035294;28;20051;-82
2023/08/31 03:16:25;;;;;;;7.32;5.07;;;;;;;14.17;69.76;98944.75;5052862;28;20601;-82
2023/08/31 03:18:51;;;;;;;8.60;4.85;;;;;;;14.15;69.91;98944.88;5053119;28;20064;-82
2023/08/31 03:21:17;;;;;;;5.10;4.47;;;;;;;14.14;70.18;98945.88;5052736;28;20049;-82
2023/08/31 03:23:44;;;;;;;6.20;4.85;;;;;;;14.13;70.41;98938.88;5052911;28;20055;-82
2023/08/31 03:26:10;;;;;;;6.65;4.90;;;;;;;14.14;70.48;98948.50;5053143;28;20045;-82
2023/08/31 03:28:38;;;;;;;8.85;5.28;;;;;;;14.14;70.65;98948.50;5053190;28;20048;-82
2023/08/31 03:31:05;;;;;;;8.32;5.43;;;;;;;14.17;70.66;98950.06;5035168;28;20052;-82
2023/08/31 03:33:31;;;;;;;10.43;5.22;;;;;;;14.18;70.58;98943.78;5035005;28;20099;-82
2023/08/31 03:36:04;;;;;;;8.13;5.63;;;;;;;14.20;70.51;98952.41;5052898;28;20123;-83
2023/08/31 03:38:37;;;;;;;10.30;5.80;;;;;;;14.22;70.63;98947.84;5052650;28;20087;-82
2023/08/31 03:41:04;;;;;;;8.65;4.75;;;;;;;14.25;70.51;98952.88;5037827;28;20318;-82
2023/08/31 03:43:30;;;;;;;7.35;5.10;;;;;;;14.26;70.37;98956.34;5034781;28;20514;-82
2023/08/31 03:45:57;;;;;;;7.78;5.15;;;;;;;14.26;70.40;98957.19;5026798;28;20056;-83
2023/08/31 03:48:24;;;;;;;7.90;5.60;;;;;;;14.29;70.27;98953.44;5052123;28;20048;-82
2023/08/31 03:50:52;;;;;;;6.50;4.95;;;;;;;14.27;70.27;98956.22;5052387;28;20048;-82
2023/08/31 03:53:19;;;;;;;8.07;5.53;;;;;;;14.27;70.10;98953.56;5052898;28;20094;-82
2023/08/31 03:55:45;;;;;;;7.25;5.50;;;;;;;14.26;70.00;98954.56;5052608;28;20496;-82
2023/08/31 03:58:12;;;;;;;7.57;5.63;;;;;;;14.24;70.22;98951.19;5052413;28;20120;-82
2023/08/31 04:00:39;;;;;;;7.10;5.00;;;;;;;14.23;70.02;98957.47;5044063;28;20057;-82
2023/08/31 04:03:06;;;;;;;11.18;5.95;;;;;;;14.21;70.23;98959.41;5052258;28;20127;-82
2023/08/31 04:05:36;;;;;;;9.75;5.53;;;;;;;14.20;70.18;98965.66;5052474;28;20541;-82
2023/08/31 04:08:03;;;;;;;8.35;5.55;;;;;;;14.20;70.51;98974.44;5051933;28;20044;-82
2023/08/31 04:10:31;;;;;;;10.27;5.72;;;;;;;14.19;70.68;98975.41;5044499;28;20048;-82
2023/08/31 04:12:58;;;;;;;7.25;5.47;;;;;;;14.20;70.72;98970.94;5051873;28;20073;-82
2023/08/31 04:15:25;;;;;;;6.45;5.43;;;;;;;14.22;70.88;98962.88;5052054;28;20052;-83
2023/08/31 04:17:51;;;;;;;10.18;5.90;;;;;;;14.23;70.53;98967.19;5051996;28;20053;-83
2023/08/31 04:20:18;;;;;;;8.15;5.53;;;;;;;14.23;70.41;98968.03;5034048;28;20136;-82
2023/08/31 04:22:44;;;;;;;6.88;5.65;;;;;;;14.24;70.40;98966.25;5051827;28;20055;-82
2023/08/31 04:25:11;;;;;;;9.23;6.63;;;;;;;14.22;70.11;98965.53;5051951;28;20055;-82
2023/08/31 04:27:39;;;;;;;10.10;5.50;;;;;;;14.20;70.00;98966.50;5051724;28;20044;-82
2023/08/31 04:30:07;;;;;;;8.18;5.95;;;;;;;14.18;69.98;98967.59;5036251;28;20059;-82
2023/08/31 04:32:35;;;;;;;7.82;6.45;;;;;;;14.15;69.86;98966.06;5053050;28;20136;-82
2023/08/31 04:35:04;;;;;;;7.65;6.28;;;;;;;14.13;70.32;98972.44;5053268;28;20053;-82
2023/08/31 04:37:34;;;;;;;7.97;6.18;;;;;;;14.09;70.50;98973.69;5034874;28;20048;-82
2023/08/31 04:40:01;;;;;;;7.85;6.53;;;;;;;14.09;70.70;98976.31;5044663;28;20511;-82
2023/08/31 04:42:27;;;;;;;10.23;7.00;;;;;;;14.07;70.60;98981.75;5053547;28;20068;-83
2023/08/31 04:44:54;;;;;;;10.57;6.45;;;;;;;14.06;70.92;98972.97;5052852;28;20056;-82
2023/08/31 04:47:20;;;;;;;9.60;7.00;;;;;;;14.06;70.84;98969.50;5053832;28;20051;-82
2023/08/31 04:49:47;;;;;;;10.90;7.15;;;;;;;14.06;70.63;98961.56;5053282;28;20121;-82
2023/08/31 04:52:13;;;;;;;13.95;8.30;;;;;;;14.06;70.82;98972.13;5034973;28;20052;-83
2023/08/31 04:54:40;;;;;;;11.50;8.35;;;;;;;14.05;70.84;98968.63;5053157;28;20049;-82
2023/08/31 04:57:07;;;;;;;10.40;7.95;;;;;;;14.06;71.19;98972.13;5053034;28;20052;-82
2023/08/31 04:59:33;;;;;;;11.05;7.80;;;;;;;14.06;71.14;98978.25;5051959;28;20049;-83
2023/08/31 05:02:00;;;;;;;13.13;8.82;;;;;;;14.08;71.15;98983.41;5050539;28;20045;-83
2023/08/31 05:04:28;;;;;;;11.93;8.35;;;;;;;14.07;70.92;98987.88;5034354;28;20055;-83
2023/08/31 05:06:54;;;;;;;14.15;9.48;;;;;;;14.10;71.17;98983.28;5051569;28;20131;-83
2023/08/31 05:09:21;;;;;;;13.70;9.50;;;;;;;14.11;71.20;98987.59;5051180;28;20045;-83
2023/08/31 05:11:47;;;;;;;12.60;9.50;;;;;;;14.12;71.39;98990.13;5052403;28;20499;-83
2023/08/31 05:14:14;;;;;;;12.05;9.80;;;;;;;14.13;71.31;99002.38;5052009;28;20045;-85
2023/08/31 05:16:40;;;;;;;12.35;9.68;;;;;;;14.14;71.51;99003.25;5051199;28;20048;-85
2023/08/31 05:19:07;;;;;;;12.38;9.52;;;;;;;14.15;71.63;99013.69;5017997;28;20056;-83
2023/08/31 05:21:33;;;;;;;12.40;9.80;;;;;;;14.16;71.63;99015.38;5052692;28;20055;-83
2023/08/31 05:24:00;;;;;;;11.68;9.60;;;;;;;14.19;71.53;99022.22;5034875;28;20059;-82
2023/08/31 05:26:26;;;;;;;11.98;9.27;;;;;;;14.19;71.39;99020.41;5053514;28;20045;-84
2023/08/31 05:28:53;;;;;;;12.50;9.70;;;;;;;14.22;71.59;99016.66;5052926;28;20410;-83
2023/08/31 05:31:19;;;;;;;10.70;9.20;;;;;;;14.25;71.83;99018.22;5051157;28;20045;-83
2023/08/31 05:33:46;;;;;;;16.58;9.55;;;;;;;14.25;71.60;99015.56;5033034;28;20064;-83
2023/08/31 05:36:12;;;;;;;14.15;9.57;;;;;;;14.27;71.64;99017.09;5051500;28;20391;-82
2023/08/31 05:38:39;;;;;;;13.38;9.57;;;;;;;14.30;71.49;99010.72;5042528;28;20495;-82
2023/08/31 05:41:06;;;;;;;11.35;9.25;;;;;;;14.33;71.46;99015.75;5050693;28;20139;-83
2023/08/31 05:43:34;;;;;;;12.43;9.07;;;;;;;14.35;71.60;99016.44;5051343;28;20124;-83
2023/08/31 05:46:02;;;;;;;12.75;9.82;;;;;;;14.37;71.70;99003.94;5049273;28;20506;-83
2023/08/31 05:48:29;;;;;;;13.25;10.20;;;;;;;14.39;71.40;99020.53;5045485;28;20045;-82
2023/08/31 05:50:55;;;;;;;18.73;10.68;;;;;;;14.41;71.51;99015.94;5050479;28;20128;-83
2023/08/31 05:53:22;;;;;;;11.88;9.55;;;;;;;14.42;71.29;99022.91;5033067;28;20053;-82
2023/08/31 05:55:48;;;;;;;10.77;9.57;;;;;;;14.43;71.67;99027.22;5050963;28;20048;-82
2023/08/31 05:58:15;;;;;;;13.30;9.65;;;;;;;14.44;71.52;99023.59;5050985;28;20056;-83
2023/08/31 06:00:41;;;;;;;14.75;9.80;;;;;;;14.46;71.76;99032.28;5050686;28;20415;-82
2023/08/31 06:03:08;;;;;;;12.77;9.93;;;;;;;14.51;71.84;99031.03;5050491;28;20041;-82
2023/08/31 06:05:35;;;;;;;12.88;9.93;;;;;;;14.53;71.83;99023.78;5050807;28;20045;-82
2023/08/31 06:08:02;;;;;;;12.73;10.23;;;;;;;14.54;71.54;99022.84;5050637;28;20057;-82
2023/08/31 06:10:29;;;;;;;14.07;10.38;;;;;;;14.56;71.15;99024.38;5033262;28;20123;-83
2023/08/31 06:12:55;;;;;;;14.73;10.77;;;;;;;14.56;71.23;99027.03;5033709;28;20534;-83
2023/08/31 06:15:22;;;;;;;17.75;10.52;;;;;;;14.55;71.02;99038.56;5054851;28;20052;-82
2023/08/31 06:17:48;;;;;;;13.25;10.75;;;;;;;14.57;71.02;99046.41;5054567;28;20059;-83
2023/08/31 06:20:15;;;;;;;14.45;10.63;;;;;;;14.57;71.44;99044.59;5055405;28;20106;-83
2023/08/31 06:22:41;;;;;;;14.50;11.45;;;;;;;14.59;71.51;99047.13;5056084;28;20045;-82
2023/08/31 06:25:08;;;;;;;13.10;10.48;;;;;;;14.62;71.60;99043.38;5055747;28;20057;-83
2023/08/31 06:27:35;;;;;;;15.25;10.63;;;;;;;14.65;71.64;99051.06;5055858;28;20087;-83
2023/08/31 06:30:02;;;;;;;14.20;10.68;;;;;;;14.68;71.79;99050.78;5047684;28;20055;-83
2023/08/31 06:34:57;;;;;;;12.07;10.40;;;;;;;14.78;71.94;99056.16;5112616;22;20068;-78
2023/08/31 06:37:24;;;;;;;13.00;9.68;;;;;;;14.83;71.83;99057.44;5036511;28;20093;-77
2023/08/31 06:39:50;;;;;;;11.73;10.15;;;;;;;14.88;71.98;99066.81;5053946;28;20044;-78
2023/08/31 06:42:17;;;;;;;11.35;9.68;;;;;;;14.93;71.87;99059.28;5053867;28;20052;-77
2023/08/31 06:44:43;;;;;;;13.48;9.85;;;;;;;14.98;72.12;99057.09;5053563;28;20102;-79
2023/08/31 06:47:10;;;;;;;11.60;10.32;;;;;;;15.04;71.99;99053.06;5052050;28;20084;-78
2023/08/31 06:49:36;;;;;;;14.45;10.35;;;;;;;15.11;71.84;99056.88;5052626;28;20072;-79
2023/08/31 06:52:07;;;;;;;14.45;10.18;;;;;;;15.16;71.47;99062.59;5052802;28;20049;-78
2023/08/31 06:54:47;;;;;;;10.25;9.05;;;;;;;15.21;71.45;99067.47;5053003;28;20515;-78
2023/08/31 06:57:14;;;;;;;14.63;9.93;;;;;;;15.24;71.53;99065.41;5053012;28;20097;-78
2023/08/31 06:59:41;;;;;;;11.30;10.10;;;;;;;15.29;71.75;99066.81;5053019;28;20044;-79
2023/08/31 07:02:07;;;;;;;11.98;9.98;;;;;;;15.35;71.65;99071.56;5052685;28;20102;-77
2023/08/31 07:04:34;;;;;;;16.20;9.93;;;;;;;15.40;71.67;99066.69;5052981;28;20043;-78
2023/08/31 07:07:00;;;;;;;13.52;11.13;;;;;;;15.46;71.63;99068.81;5053018;28;20041;-77
2023/08/31 07:09:27;;;;;;;13.63;9.77;;;;;;;15.53;71.60;99070.91;5057857;28;20068;-79
2023/08/31 07:11:53;;;;;;;13.30;8.93;;;;;;;15.60;71.90;99078.22;5055751;28;20049;-77
2023/08/31 07:14:20;;;;;;;12.05;8.93;;;;;;;15.67;71.79;99075.00;5048796;28;20048;-79
2023/08/31 07:16:46;;;;;;;13.23;9.55;;;;;;;15.74;71.89;99076.13;5056844;28;20080;-78
2023/08/31 07:19:13;;;;;;;11.32;9.43;;;;;;;15.83;71.83;99087.72;5043224;28;20107;-79
2023/08/31 07:22:03;;;;;;;13.55;9.40;;;;;;;15.85;71.29;99081.28;5053217;28;20037;-78
2023/08/31 07:24:36;;;;;;;13.32;9.15;;;;;;;15.96;70.91;99083.00;5052009;28;20421;-77
2023/08/31 07:27:03;;;;;;;10.95;9.23;;;;;;;15.99;70.68;99093.34;5052347;28;20053;-80
2023/08/31 07:29:31;;;;;;;11.27;9.23;;;;;;;16.02;70.63;99095.75;5052274;28;20555;-78
2023/08/31 07:31:57;;;;;;;12.95;9.02;;;;;;;16.05;70.69;99085.81;5034582;28;20049;-79
2023/08/31 07:34:24;;;;;;;9.85;8.82;;;;;;;16.06;70.68;99092.78;5048240;28;20053;-78
2023/08/31 07:36:51;;;;;;;12.32;9.63;;;;;;;16.10;70.44;99099.50;5023345;28;20045;-77
2023/08/31 07:39:17;;;;;;;11.90;9.63;;;;;;;16.13;70.59;99093.91;5051943;28;20088;-78
2023/08/31 07:41:44;;;;;;;10.40;9.30;;;;;;;16.17;71.08;99100.63;5051991;28;20394;-77
2023/08/31 07:44:11;;;;;;;12.57;9.02;;;;;;;16.22;70.79;99105.53;5052409;28;20390;-78
2023/08/31 07:46:37;;;;;;;11.38;9.18;;;;;;;16.26;70.42;99105.09;5052222;28;20053;-78
2023/08/31 07:49:04;;;;;;;11.18;9.60;;;;;;;16.31;70.53;99106.47;5123034;22;20048;-87
2023/08/31 07:51:30;;;;;;;10.65;8.75;;;;;;;16.35;70.23;99107.88;5035194;28;20044;-88
2023/08/31 07:53:57;;;;;;;12.90;10.05;;;;;;;16.37;70.14;99100.63;5052665;28;20462;-88
2023/08/31 07:56:23;;;;;;;13.80;9.15;;;;;;;16.42;70.17;99109.81;5035238;28;20403;-88
2023/08/31 07:58:50;;;;;;;13.13;9.20;;;;;;;16.48;70.47;99107.59;5014532;28;20123;-87
2023/08/31 08:01:17;;;;;;;9.98;8.95;;;;;;;16.53;70.15;99114.13;5031580;28;20606;-88
2023/08/31 08:03:44;;;;;;;10.90;9.25;;;;;;;16.59;70.19;99110.06;5031946;28;20049;-87
2023/08/31 08:06:10;;;;;;;11.75;9.40;;;;;;;16.65;69.90;99111.34;5030613;28;20519;-88
2023/08/31 08:08:37;;;;;;;13.00;9.52;;;;;;;16.68;69.82;99113.72;5014045;28;20057;-88
2023/08/31 08:11:04;;;;;;;10.70;9.05;;;;;;;16.72;70.19;99122.22;5013710;28;20053;-88
2023/08/31 08:13:31;;;;;;;11.98;9.02;;;;;;;16.77;70.06;99118.16;5031790;28;20041;-89
2023/08/31 08:15:57;;;;;;;10.15;9.02;;;;;;;16.83;69.49;99122.06;5022447;28;20085;-88
2023/08/31 08:18:24;;;;;;;11.68;9.18;;;;;;;16.89;69.86;99126.81;5023668;28;20141;-89
2023/08/31 08:20:50;;;;;;;12.35;9.18;;;;;;;16.96;69.84;99118.25;5031365;28;20469;-88
2023/08/31 08:23:17;;;;;;;11.05;9.27;;;;;;;17.03;69.83;99119.34;5013783;28;20080;-89
2023/08/31 08:25:44;;;;;;;10.65;8.07;;;;;;;17.09;69.45;99123.28;5039794;28;20052;-88
2023/08/31 08:28:13;;;;;;;8.70;7.80;;;;;;;17.17;69.20;99121.56;5014322;28;20503;-87
2023/08/31 08:30:39;;;;;;;9.68;7.40;;;;;;;17.22;68.70;99134.41;5013612;28;20084;-88
2023/08/31 08:33:07;;;;;;;8.20;7.38;;;;;;;17.28;68.84;99133.00;5022276;28;20049;-89
2023/08/31 08:35:34;;;;;;;10.60;7.60;;;;;;;17.32;68.92;99142.38;5032054;28;20050;-89
2023/08/31 08:38:00;;;;;;;11.20;7.97;;;;;;;17.36;68.41;99135.78;5013438;28;20056;-87
2023/08/31 08:40:27;;;;;;;10.93;7.55;;;;;;;17.41;68.08;99130.00;5029780;28;20049;-86
2023/08/31 08:42:55;;;;;;;11.07;7.55;;;;;;;17.44;67.97;99138.53;5030961;28;20455;-86
2023/08/31 08:45:25;;;;;;;8.73;7.25;;;;;;;17.47;68.02;99140.06;5031040;28;20408;-86
2023/08/31 08:47:52;;;;;;;7.97;6.95;;;;;;;17.54;68.65;99135.81;5022968;28;20080;-86
2023/08/31 08:50:20;;;;;;;9.02;6.85;;;;;;;17.60;68.56;99133.56;5012935;28;20515;-86
2023/08/31 08:52:47;;;;;;;7.53;6.10;;;;;;;17.67;68.47;99130.16;5030976;28;20565;-86
2023/08/31 08:55:15;;;;;;;8.20;6.40;;;;;;;17.75;68.24;99140.03;5031062;28;20132;-86
2023/08/31 08:57:42;;;;;;;7.30;6.60;;;;;;;17.84;68.18;99148.97;5013197;28;20059;-85
2023/08/31 09:00:09;;;;;;;9.55;6.70;;;;;;;17.92;67.92;99148.19;5029444;28;20064;-86
2023/08/31 09:02:36;;;;;;;9.52;6.22;;;;;;;18.00;67.91;99139.44;5030795;28;20045;-86
2023/08/31 09:05:02;;;;;;;10.30;5.90;;;;;;;18.08;67.93;99148.41;5030600;28;20056;-85
2023/08/31 09:07:29;;;;;;;7.93;5.82;;;;;;;18.17;67.66;99143.16;5030694;28;20136;-86
2023/08/31 09:09:56;;;;;;;7.13;5.45;;;;;;;18.23;66.87;99151.38;5030463;28;20049;-86
2023/08/31 09:12:24;;;;;;;9.35;5.88;;;;;;;18.30;67.15;99150.75;5030751;28;20049;-86
2023/08/31 09:15:00;;;;;;;6.57;5.13;;;;;;;18.33;66.51;99140.66;5030714;28;20065;-85
2023/08/31 09:17:41;;;;;;;5.82;5.22;;;;;;;18.41;65.75;99149.69;5012754;28;20048;-85
2023/08/31 09:20:09;;;;;;;6.53;4.55;;;;;;;18.52;66.72;99146.78;5030493;28;20100;-86
2023/08/31 09:22:36;;;;;;;6.88;4.93;;;;;;;18.59;66.44;99161.19;5030687;28;20317;-86
2023/08/31 09:25:03;;;;;;;7.80;4.60;;;;;;;18.65;66.48;99159.69;5030656;28;20057;-85
2023/08/31 09:27:31;;;;;;;5.20;4.68;;;;;;;18.71;66.45;99153.75;5012862;28;20048;-85
2023/08/31 09:29:58;;;;;;;7.07;4.60;;;;;;;18.79;66.41;99160.97;5030629;28;20045;-85
2023/08/31 09:32:24;;;;;;;6.43;4.68;;;;;;;18.88;65.84;99164.56;5012911;28;20057;-86
2023/08/31 09:34:50;;;;;;;4.85;4.00;;;;;;;18.95;65.22;99165.59;5013008;28;20055;-86
2023/08/31 09:37:31;;;;;;;5.93;3.70;;;;;;;19.04;65.84;99168.31;5030764;28;20049;-85
2023/08/31 09:40:02;;;;;;;6.97;3.25;;;;;;;19.13;65.07;99170.91;5012554;28;20504;-85
2023/08/31 09:42:38;;;;;;;4.55;3.25;;;;;;;19.23;63.78;99172.63;5012772;28;20103;-86
2023/08/31 09:45:06;;;;;;;6.30;3.38;;;;;;;19.36;64.89;99169.53;5013043;28;20060;-85
2023/08/31 09:47:33;;;;;;;6.53;3.20;;;;;;;19.42;64.21;99160.88;5014248;28;20087;-86
2023/08/31 09:50:00;;;;;;;7.15;3.00;;;;;;;19.48;63.95;99164.75;5034095;28;20090;-85
2023/08/31 09:52:27;;;;;;;4.32;3.10;;;;;;;19.53;63.62;99168.59;5034116;28;20460;-85
2023/08/31 09:54:55;;;;;;;7.13;3.30;;;;;;;19.55;62.93;99162.25;5026328;28;20497;-85
2023/08/31 09:57:23;;;;;;;5.38;3.15;;;;;;;19.57;62.34;99177.13;5034143;28;20057;-85
2023/08/31 10:00:10;;;;;;;4.45;3.42;;;;;;;19.56;62.36;99172.78;5033874;28;20076;-87
2023/08/31 10:02:36;;;;;;;5.20;3.38;;;;;;;19.56;62.75;99172.78;5034019;28;20060;-87
2023/08/31 10:05:04;;;;;;;6.63;2.88;;;;;;;19.59;62.89;99180.44;5034003;28;20193;-87
2023/08/31 10:07:30;;;;;;;4.32;2.90;;;;;;;19.66;63.20;99175.31;5016041;28;20122;-88
2023/08/31 10:09:57;;;;;;;4.88;2.30;;;;;;;19.74;62.69;99174.50;5033823;28;20494;-86
2023/08/31 10:12:24;;;;;;;4.50;2.30;;;;;;;19.83;62.10;99181.56;5033961;28;20050;-86
2023/08/31 10:14:52;;;;;;;4.43;2.35;;;;;;;19.91;61.79;99181.56;5016516;28;20053;-86
2023/08/31 10:17:20;;;;;;;2.95;2.10;;;;;;;19.99;61.40;99182.63;5033628;28;20061;-86
2023/08/31 10:19:47;;;;;;;4.78;2.15;;;;;;;20.06;61.22;99175.63;5033712;28;20140;-86
2023/08/31 10:22:14;;;;;;;3.25;1.70;;;;;;;20.14;61.49;99175.66;5015903;28;20128;-86
2023/08/31 10:24:59;;;;;;;3.03;1.92;;;;;;;20.22;60.35;99179.34;5033530;28;20041;-85
2023/08/31 10:27:27;;;;;;;4.18;2.00;;;;;;;20.37;61.15;99172.31;5015952;28;20050;-85
2023/08/31 10:29:54;;;;;;;3.72;1.85;;;;;;;20.49;60.67;99166.66;5033710;28;20499;-86
2023/08/31 10:32:21;;;;;;;4.20;2.20;;;;;;;20.54;59.74;99183.03;5015574;28;20488;-85
2023/08/31 10:35:08;;;;;;;3.60;2.20;;;;;;;20.51;58.16;99186.03;5033689;28;20156;-86
2023/08/31 10:37:35;;;;;;;4.05;2.10;;;;;;;20.55;59.30;99179.34;5033269;28;20574;-86
2023/08/31 10:40:14;;;;;;;3.53;1.75;;;;;;;20.47;58.13;99179.34;5015705;28;20049;-85
2023/08/31 10:42:47;;;;;;;3.15;1.85;;;;;;;20.41;58.29;99176.34;5031992;28;20551;-86
2023/08/31 10:45:14;;;;;;;3.03;1.80;;;;;;;20.39;59.32;99180.19;5015877;28;20104;-86
2023/08/31 10:47:41;;;;;;;2.97;1.70;;;;;;;20.36;59.69;99169.81;5033109;28;20073;-85
2023/08/31 10:50:19;;;;;;;4.18;1.48;;;;;;;20.36;60.28;99167.13;5033115;28;20049;-86
2023/08/31 10:52:45;;;;;;;2.22;1.80;;;;;;;20.49;61.86;99175.53;5021661;28;20052;-86
2023/08/31 10:55:12;;;;;;;2.60;1.42;;;;;;;20.65;60.61;99173.84;5011972;28;20055;-86
2023/08/31 10:57:40;;;;;;;3.28;1.88;;;;;;;20.80;59.91;99174.84;5031911;28;20388;-86
2023/08/31 11:00:08;;;;;;;2.90;1.60;;;;;;;20.96;59.98;99176.69;5031750;28;20049;-86
2023/08/31 11:02:36;;;;;;;2.38;1.33;;;;;;;21.08;59.14;99162.94;5015259;28;20042;-86
2023/08/31 11:05:16;;;;;;;3.00;1.67;;;;;;;21.12;57.02;99166.94;5015249;28;20492;-86
2023/08/31 11:07:45;;;;;;;5.13;1.80;;;;;;;21.15;57.65;99173.81;5015423;28;20120;-86
2023/08/31 11:10:17;;;;;;;2.65;1.98;;;;;;;21.04;56.41;99173.16;5015210;28;20132;-86
2023/08/31 11:12:46;;;;;;;3.17;1.77;;;;;;;20.94;57.03;99202.75;5019697;28;20103;-86
2023/08/31 11:15:20;;;;;;;5.47;1.48;;;;;;;20.72;55.45;99208.75;5036534;28;20152;-91
2023/08/31 11:18:22;;;;;;;;;;;;;;;;;;;;;
2023/08/31 11:20:52;;;;;;;0.68;0.57;;;;;;;20.11;56.58;99208.03;5020291;28;20045;-90
2023/08/31 11:23:19;;;;;;;2.35;1.10;;;;;;;19.81;57.35;99214.75;5030096;28;20065;-89
2023/08/31 11:25:47;;;;;;;3.63;1.20;;;;;;;19.52;57.83;99216.81;5031562;28;20045;-89
2023/08/31 11:28:14;;;;;;;3.53;1.02;;;;;;;19.30;59.31;99215.50;5031294;28;20057;-87
2023/08/31 11:30:43;;;;;;;3.40;1.30;;;;;;;19.15;60.03;99208.09;5024498;28;20467;-87
2023/08/31 11:33:11;;;;;;;3.38;1.35;;;;;;;19.04;61.21;99209.16;5015092;28;20421;-87
2023/08/31 11:35:41;;;;;;;5.28;1.45;;;;;;;18.99;62.28;99206.94;5031441;28;20072;-87
2023/08/31 11:38:08;;;;;;;2.88;1.27;;;;;;;19.01;62.84;99198.78;5007764;28;20050;-87